sensor_id;sensor_type;location;lat;lon;timestamp;P1;durP1;ratioP1;P2;durP2;ratioP2
15476;SDS011;7840;42.702;23.296;2022-12-19T00:01:24;18.97;;;14.07;;
15476;SDS011;7840;42.702;23.296;2022-12-19T00:03:54;20.90;;;15.47;;
15476;SDS011;7840;42.702;23.296;2022-12-19T00:06:24;20.53;;;13.80;;
15476;SDS011;7840;42.702;23.296;2022-12-19T00:08:58;20.90;;;14.87;;
15476;SDS011;7840;42.702;23.296;2022-12-19T00:11:29;22.03;;;14.50;;
15476;SDS011;7840;42.702;23.296;2022-12-19T00:17:07;19.00;;;13.83;;
15476;SDS011;7840;42.702;23.296;2022-12-19T00:19:35;21.90;;;14.87;;
15476;SDS011;7840;42.702;23.296;2022-12-19T00:22:03;22.47;;;14.90;;
15476;SDS011;7840;42.702;23.296;2022-12-19T00:24:31;19.97;;;14.83;;
15476;SDS011;7840;42.702;23.296;2022-12-19T00:27:21;21.13;;;15.93;;
15476;SDS011;7840;42.702;23.296;2022-12-19T00:29:50;24.10;;;15.47;;
15476;SDS011;7840;42.702;23.296;2022-12-19T00:32:18;24.97;;;15.40;;
15476;SDS011;7840;42.702;23.296;2022-12-19T00:34:46;19.90;;;14.53;;
15476;SDS011;7840;42.702;23.296;2022-12-19T00:37:16;22.17;;;15.40;;
15476;SDS011;7840;42.702;23.296;2022-12-19T00:39:45;22.17;;;16.27;;
15476;SDS011;7840;42.702;23.296;2022-12-19T00:42:13;23.20;;;16.30;;
15476;SDS011;7840;42.702;23.296;2022-12-19T00:44:40;21.03;;;14.73;;
15476;SDS011;7840;42.702;23.296;2022-12-19T00:47:10;19.53;;;14.87;;
15476;SDS011;7840;42.702;23.296;2022-12-19T00:49:38;21.97;;;14.97;;
15476;SDS011;7840;42.702;23.296;2022-12-19T00:52:24;23.83;;;17.77;;
15476;SDS011;7840;42.702;23.296;2022-12-19T00:54:55;24.77;;;16.83;;
15476;SDS011;7840;42.702;23.296;2022-12-19T00:57:28;21.67;;;15.40;;
15476;SDS011;7840;42.702;23.296;2022-12-19T00:59:58;23.17;;;16.60;;
15476;SDS011;7840;42.702;23.296;2022-12-19T01:07:44;20.63;;;14.60;;
15476;SDS011;7840;42.702;23.296;2022-12-19T01:10:11;21.83;;;15.20;;
15476;SDS011;7840;42.702;23.296;2022-12-19T01:12:42;23.20;;;16.10;;
15476;SDS011;7840;42.702;23.296;2022-12-19T01:15:12;21.53;;;15.43;;
15476;SDS011;7840;42.702;23.296;2022-12-19T01:17:46;26.63;;;18.30;;
15476;SDS011;7840;42.702;23.296;2022-12-19T01:20:15;23.00;;;17.27;;
15476;SDS011;7840;42.702;23.296;2022-12-19T01:22:44;23.73;;;17.00;;
15476;SDS011;7840;42.702;23.296;2022-12-19T01:25:12;24.93;;;16.43;;
15476;SDS011;7840;42.702;23.296;2022-12-19T01:27:40;22.17;;;15.73;;
15476;SDS011;7840;42.702;23.296;2022-12-19T01:30:09;28.30;;;17.77;;
15476;SDS011;7840;42.702;23.296;2022-12-19T01:32:40;24.37;;;15.80;;
15476;SDS011;7840;42.702;23.296;2022-12-19T01:35:09;23.27;;;15.90;;
15476;SDS011;7840;42.702;23.296;2022-12-19T01:37:37;20.67;;;14.77;;
15476;SDS011;7840;42.702;23.296;2022-12-19T01:40:05;24.53;;;17.27;;
15476;SDS011;7840;42.702;23.296;2022-12-19T01:42:34;24.57;;;16.53;;
15476;SDS011;7840;42.702;23.296;2022-12-19T01:45:03;22.83;;;16.07;;
15476;SDS011;7840;42.702;23.296;2022-12-19T01:47:47;20.40;;;16.13;;
15476;SDS011;7840;42.702;23.296;2022-12-19T01:50:22;21.90;;;15.80;;
15476;SDS011;7840;42.702;23.296;2022-12-19T01:52:52;22.90;;;16.63;;
15476;SDS011;7840;42.702;23.296;2022-12-19T01:55:20;24.37;;;15.53;;
15476;SDS011;7840;42.702;23.296;2022-12-19T01:57:48;24.23;;;15.23;;
15476;SDS011;7840;42.702;23.296;2022-12-19T02:00:16;24.67;;;15.63;;
15476;SDS011;7840;42.702;23.296;2022-12-19T02:02:45;25.03;;;15.90;;
15476;SDS011;7840;42.702;23.296;2022-12-19T02:05:42;25.90;;;15.73;;
15476;SDS011;7840;42.702;23.296;2022-12-19T02:08:12;24.20;;;16.93;;
15476;SDS011;7840;42.702;23.296;2022-12-19T02:10:41;24.47;;;15.90;;
15476;SDS011;7840;42.702;23.296;2022-12-19T02:13:08;24.77;;;15.53;;
15476;SDS011;7840;42.702;23.296;2022-12-19T02:15:39;27.43;;;17.07;;
15476;SDS011;7840;42.702;23.296;2022-12-19T02:18:16;22.17;;;14.93;;
15476;SDS011;7840;42.702;23.296;2022-12-19T02:23:57;23.10;;;15.57;;
15476;SDS011;7840;42.702;23.296;2022-12-19T02:29:37;22.00;;;15.73;;
15476;SDS011;7840;42.702;23.296;2022-12-19T02:32:05;23.77;;;16.17;;
15476;SDS011;7840;42.702;23.296;2022-12-19T02:34:41;23.47;;;16.07;;
15476;SDS011;7840;42.702;23.296;2022-12-19T02:37:16;30.87;;;19.23;;
15476;SDS011;7840;42.702;23.296;2022-12-19T02:39:47;22.90;;;14.87;;
15476;SDS011;7840;42.702;23.296;2022-12-19T02:42:22;23.10;;;16.17;;
15476;SDS011;7840;42.702;23.296;2022-12-19T02:44:55;24.47;;;16.20;;
15476;SDS011;7840;42.702;23.296;2022-12-19T02:47:28;23.40;;;16.10;;
15476;SDS011;7840;42.702;23.296;2022-12-19T02:49:58;24.23;;;17.40;;
15476;SDS011;7840;42.702;23.296;2022-12-19T02:52:47;24.37;;;15.83;;
15476;SDS011;7840;42.702;23.296;2022-12-19T02:55:19;23.97;;;14.97;;
15476;SDS011;7840;42.702;23.296;2022-12-19T03:01:34;22.23;;;14.43;;
15476;SDS011;7840;42.702;23.296;2022-12-19T03:04:14;24.23;;;16.00;;
15476;SDS011;7840;42.702;23.296;2022-12-19T03:06:48;20.60;;;14.60;;
15476;SDS011;7840;42.702;23.296;2022-12-19T03:09:23;24.57;;;15.20;;
15476;SDS011;7840;42.702;23.296;2022-12-19T03:12:00;22.57;;;14.63;;
15476;SDS011;7840;42.702;23.296;2022-12-19T03:14:32;22.77;;;15.20;;
15476;SDS011;7840;42.702;23.296;2022-12-19T03:17:03;25.30;;;16.50;;
15476;SDS011;7840;42.702;23.296;2022-12-19T03:19:32;22.30;;;15.63;;
15476;SDS011;7840;42.702;23.296;2022-12-19T03:22:00;23.77;;;15.73;;
15476;SDS011;7840;42.702;23.296;2022-12-19T03:24:28;23.30;;;15.80;;
15476;SDS011;7840;42.702;23.296;2022-12-19T03:26:56;24.40;;;16.57;;
15476;SDS011;7840;42.702;23.296;2022-12-19T03:29:28;22.27;;;15.73;;
15476;SDS011;7840;42.702;23.296;2022-12-19T03:32:00;25.43;;;16.73;;
15476;SDS011;7840;42.702;23.296;2022-12-19T03:34:45;22.67;;;16.50;;
15476;SDS011;7840;42.702;23.296;2022-12-19T03:37:16;26.20;;;17.17;;
15476;SDS011;7840;42.702;23.296;2022-12-19T03:39:48;23.63;;;17.57;;
15476;SDS011;7840;42.702;23.296;2022-12-19T03:42:20;24.90;;;17.07;;
15476;SDS011;7840;42.702;23.296;2022-12-19T03:45:08;25.40;;;17.00;;
15476;SDS011;7840;42.702;23.296;2022-12-19T03:47:53;20.83;;;15.30;;
15476;SDS011;7840;42.702;23.296;2022-12-19T03:50:24;25.60;;;16.50;;
15476;SDS011;7840;42.702;23.296;2022-12-19T03:53:16;23.47;;;15.57;;
15476;SDS011;7840;42.702;23.296;2022-12-19T03:55:57;24.83;;;17.53;;
15476;SDS011;7840;42.702;23.296;2022-12-19T03:58:37;25.33;;;17.17;;
15476;SDS011;7840;42.702;23.296;2022-12-19T04:01:16;22.17;;;15.70;;
15476;SDS011;7840;42.702;23.296;2022-12-19T04:03:47;26.77;;;15.83;;
15476;SDS011;7840;42.702;23.296;2022-12-19T04:06:18;24.17;;;16.50;;
15476;SDS011;7840;42.702;23.296;2022-12-19T04:09:00;28.53;;;16.60;;
15476;SDS011;7840;42.702;23.296;2022-12-19T04:11:33;23.23;;;16.53;;
15476;SDS011;7840;42.702;23.296;2022-12-19T04:14:05;26.20;;;18.80;;
15476;SDS011;7840;42.702;23.296;2022-12-19T04:16:49;24.80;;;17.03;;
15476;SDS011;7840;42.702;23.296;2022-12-19T04:19:27;24.80;;;17.20;;
15476;SDS011;7840;42.702;23.296;2022-12-19T04:22:00;28.97;;;17.87;;
15476;SDS011;7840;42.702;23.296;2022-12-19T04:24:37;24.93;;;16.50;;
15476;SDS011;7840;42.702;23.296;2022-12-19T04:27:08;27.13;;;16.33;;
15476;SDS011;7840;42.702;23.296;2022-12-19T04:29:37;25.83;;;16.97;;
15476;SDS011;7840;42.702;23.296;2022-12-19T04:32:06;22.87;;;16.10;;
15476;SDS011;7840;42.702;23.296;2022-12-19T04:34:37;23.23;;;15.47;;
15476;SDS011;7840;42.702;23.296;2022-12-19T04:37:06;28.07;;;17.43;;
15476;SDS011;7840;42.702;23.296;2022-12-19T04:39:37;25.20;;;16.20;;
15476;SDS011;7840;42.702;23.296;2022-12-19T04:42:05;22.63;;;15.90;;
15476;SDS011;7840;42.702;23.296;2022-12-19T04:44:34;26.97;;;18.77;;
15476;SDS011;7840;42.702;23.296;2022-12-19T04:47:03;27.37;;;18.20;;
15476;SDS011;7840;42.702;23.296;2022-12-19T04:49:32;24.53;;;16.37;;
15476;SDS011;7840;42.702;23.296;2022-12-19T04:55:06;23.53;;;15.37;;
15476;SDS011;7840;42.702;23.296;2022-12-19T04:57:36;24.70;;;16.53;;
15476;SDS011;7840;42.702;23.296;2022-12-19T05:00:04;26.73;;;17.63;;
15476;SDS011;7840;42.702;23.296;2022-12-19T05:02:32;26.40;;;17.40;;
15476;SDS011;7840;42.702;23.296;2022-12-19T05:05:01;28.67;;;16.73;;
15476;SDS011;7840;42.702;23.296;2022-12-19T05:07:32;26.43;;;17.67;;
15476;SDS011;7840;42.702;23.296;2022-12-19T05:09:59;28.57;;;16.70;;
15476;SDS011;7840;42.702;23.296;2022-12-19T05:12:28;25.70;;;16.57;;
15476;SDS011;7840;42.702;23.296;2022-12-19T05:14:58;23.90;;;16.27;;
15476;SDS011;7840;42.702;23.296;2022-12-19T05:17:26;24.60;;;16.63;;
15476;SDS011;7840;42.702;23.296;2022-12-19T05:19:54;27.77;;;18.23;;
15476;SDS011;7840;42.702;23.296;2022-12-19T05:22:35;26.93;;;18.03;;
15476;SDS011;7840;42.702;23.296;2022-12-19T05:25:04;28.90;;;17.37;;
15476;SDS011;7840;42.702;23.296;2022-12-19T05:27:55;28.43;;;17.27;;
15476;SDS011;7840;42.702;23.296;2022-12-19T05:30:35;24.97;;;16.47;;
15476;SDS011;7840;42.702;23.296;2022-12-19T05:33:08;24.60;;;16.30;;
15476;SDS011;7840;42.702;23.296;2022-12-19T05:35:39;24.73;;;17.40;;
15476;SDS011;7840;42.702;23.296;2022-12-19T05:38:06;24.33;;;16.17;;
15476;SDS011;7840;42.702;23.296;2022-12-19T05:40:34;29.17;;;18.13;;
15476;SDS011;7840;42.702;23.296;2022-12-19T05:43:03;28.33;;;17.20;;
15476;SDS011;7840;42.702;23.296;2022-12-19T05:45:30;24.70;;;15.43;;
15476;SDS011;7840;42.702;23.296;2022-12-19T05:48:13;29.60;;;17.93;;
15476;SDS011;7840;42.702;23.296;2022-12-19T05:50:45;28.83;;;19.40;;
15476;SDS011;7840;42.702;23.296;2022-12-19T05:53:14;28.97;;;18.43;;
15476;SDS011;7840;42.702;23.296;2022-12-19T05:56:03;26.90;;;17.27;;
15476;SDS011;7840;42.702;23.296;2022-12-19T05:58:47;28.80;;;16.77;;
15476;SDS011;7840;42.702;23.296;2022-12-19T06:01:29;24.53;;;16.40;;
15476;SDS011;7840;42.702;23.296;2022-12-19T06:03:57;29.77;;;18.10;;
15476;SDS011;7840;42.702;23.296;2022-12-19T06:06:25;24.87;;;16.87;;
15476;SDS011;7840;42.702;23.296;2022-12-19T06:08:54;29.27;;;18.07;;
15476;SDS011;7840;42.702;23.296;2022-12-19T06:11:26;28.57;;;18.97;;
15476;SDS011;7840;42.702;23.296;2022-12-19T06:14:00;27.93;;;17.73;;
15476;SDS011;7840;42.702;23.296;2022-12-19T06:16:30;25.23;;;16.57;;
15476;SDS011;7840;42.702;23.296;2022-12-19T06:18:58;32.17;;;18.10;;
15476;SDS011;7840;42.702;23.296;2022-12-19T06:21:39;25.70;;;17.33;;
15476;SDS011;7840;42.702;23.296;2022-12-19T06:24:07;27.70;;;17.93;;
15476;SDS011;7840;42.702;23.296;2022-12-19T06:26:46;26.47;;;17.27;;
15476;SDS011;7840;42.702;23.296;2022-12-19T06:29:19;26.83;;;17.23;;
15476;SDS011;7840;42.702;23.296;2022-12-19T06:31:48;28.13;;;19.47;;
15476;SDS011;7840;42.702;23.296;2022-12-19T06:34:19;29.70;;;18.53;;
15476;SDS011;7840;42.702;23.296;2022-12-19T06:36:46;25.47;;;17.50;;
15476;SDS011;7840;42.702;23.296;2022-12-19T06:39:14;25.77;;;17.27;;
15476;SDS011;7840;42.702;23.296;2022-12-19T06:42:06;26.87;;;15.83;;
15476;SDS011;7840;42.702;23.296;2022-12-19T06:47:35;26.33;;;17.00;;
15476;SDS011;7840;42.702;23.296;2022-12-19T06:50:07;25.53;;;16.97;;
15476;SDS011;7840;42.702;23.296;2022-12-19T06:52:51;25.37;;;16.30;;
15476;SDS011;7840;42.702;23.296;2022-12-19T06:55:34;28.87;;;17.73;;
15476;SDS011;7840;42.702;23.296;2022-12-19T06:58:02;28.90;;;18.13;;
15476;SDS011;7840;42.702;23.296;2022-12-19T07:10:48;30.43;;;18.10;;
15476;SDS011;7840;42.702;23.296;2022-12-19T07:13:17;29.13;;;20.23;;
15476;SDS011;7840;42.702;23.296;2022-12-19T07:15:48;30.40;;;21.47;;
15476;SDS011;7840;42.702;23.296;2022-12-19T07:18:27;37.67;;;22.60;;
15476;SDS011;7840;42.702;23.296;2022-12-19T07:21:05;35.37;;;23.53;;
15476;SDS011;7840;42.702;23.296;2022-12-19T07:23:38;33.57;;;21.37;;
15476;SDS011;7840;42.702;23.296;2022-12-19T07:26:21;27.17;;;18.10;;
15476;SDS011;7840;42.702;23.296;2022-12-19T07:28:52;34.07;;;20.50;;
15476;SDS011;7840;42.702;23.296;2022-12-19T07:45:08;32.07;;;21.47;;
15476;SDS011;7840;42.702;23.296;2022-12-19T07:47:36;35.03;;;22.10;;
15476;SDS011;7840;42.702;23.296;2022-12-19T07:50:17;29.00;;;19.57;;
15476;SDS011;7840;42.702;23.296;2022-12-19T07:52:45;30.77;;;21.33;;
15476;SDS011;7840;42.702;23.296;2022-12-19T07:55:59;31.80;;;20.27;;
15476;SDS011;7840;42.702;23.296;2022-12-19T07:58:34;30.50;;;20.03;;
15476;SDS011;7840;42.702;23.296;2022-12-19T08:01:22;25.57;;;16.40;;
15476;SDS011;7840;42.702;23.296;2022-12-19T08:03:49;24.50;;;17.80;;
15476;SDS011;7840;42.702;23.296;2022-12-19T08:06:20;31.47;;;19.40;;
15476;SDS011;7840;42.702;23.296;2022-12-19T08:08:54;30.50;;;21.30;;
15476;SDS011;7840;42.702;23.296;2022-12-19T08:11:44;29.17;;;19.87;;
15476;SDS011;7840;42.702;23.296;2022-12-19T08:15:01;42.53;;;23.37;;
15476;SDS011;7840;42.702;23.296;2022-12-19T08:24:25;38.17;;;23.30;;
15476;SDS011;7840;42.702;23.296;2022-12-19T08:27:08;37.27;;;24.13;;
15476;SDS011;7840;42.702;23.296;2022-12-19T08:29:37;40.03;;;24.43;;
15476;SDS011;7840;42.702;23.296;2022-12-19T08:32:05;38.03;;;24.87;;
15476;SDS011;7840;42.702;23.296;2022-12-19T08:34:33;35.40;;;21.93;;
15476;SDS011;7840;42.702;23.296;2022-12-19T08:37:01;39.57;;;23.50;;
15476;SDS011;7840;42.702;23.296;2022-12-19T08:39:30;41.80;;;24.63;;
15476;SDS011;7840;42.702;23.296;2022-12-19T08:42:01;39.77;;;22.77;;
15476;SDS011;7840;42.702;23.296;2022-12-19T08:44:47;35.70;;;22.60;;
15476;SDS011;7840;42.702;23.296;2022-12-19T08:47:29;34.37;;;21.73;;
15476;SDS011;7840;42.702;23.296;2022-12-19T08:49:57;37.00;;;22.50;;
15476;SDS011;7840;42.702;23.296;2022-12-19T08:52:29;34.27;;;22.53;;
15476;SDS011;7840;42.702;23.296;2022-12-19T08:55:09;30.20;;;19.77;;
15476;SDS011;7840;42.702;23.296;2022-12-19T08:57:50;34.93;;;22.03;;
15476;SDS011;7840;42.702;23.296;2022-12-19T09:00:18;37.10;;;22.40;;
15476;SDS011;7840;42.702;23.296;2022-12-19T09:02:46;39.07;;;23.50;;
15476;SDS011;7840;42.702;23.296;2022-12-19T09:05:14;35.13;;;23.63;;
15476;SDS011;7840;42.702;23.296;2022-12-19T09:07:41;39.17;;;25.50;;
15476;SDS011;7840;42.702;23.296;2022-12-19T09:10:10;39.93;;;25.43;;
15476;SDS011;7840;42.702;23.296;2022-12-19T09:12:38;39.60;;;26.37;;
15476;SDS011;7840;42.702;23.296;2022-12-19T09:15:06;43.50;;;25.17;;
15476;SDS011;7840;42.702;23.296;2022-12-19T09:17:35;39.33;;;25.73;;
15476;SDS011;7840;42.702;23.296;2022-12-19T09:20:03;44.83;;;27.53;;
15476;SDS011;7840;42.702;23.296;2022-12-19T09:22:31;43.10;;;26.00;;
15476;SDS011;7840;42.702;23.296;2022-12-19T09:25:02;42.23;;;25.87;;
15476;SDS011;7840;42.702;23.296;2022-12-19T09:27:34;40.53;;;25.43;;
15476;SDS011;7840;42.702;23.296;2022-12-19T09:30:02;41.60;;;23.63;;
15476;SDS011;7840;42.702;23.296;2022-12-19T09:32:43;42.10;;;23.37;;
15476;SDS011;7840;42.702;23.296;2022-12-19T09:35:10;36.33;;;22.03;;
15476;SDS011;7840;42.702;23.296;2022-12-19T09:37:38;40.47;;;22.53;;
15476;SDS011;7840;42.702;23.296;2022-12-19T09:40:08;34.77;;;22.87;;
15476;SDS011;7840;42.702;23.296;2022-12-19T09:42:45;34.90;;;22.33;;
15476;SDS011;7840;42.702;23.296;2022-12-19T09:45:32;30.33;;;20.83;;
15476;SDS011;7840;42.702;23.296;2022-12-19T09:48:11;30.20;;;20.50;;
15476;SDS011;7840;42.702;23.296;2022-12-19T09:53:30;31.57;;;19.33;;
15476;SDS011;7840;42.702;23.296;2022-12-19T09:56:09;32.97;;;20.00;;
15476;SDS011;7840;42.702;23.296;2022-12-19T09:58:57;34.77;;;19.97;;
15476;SDS011;7840;42.702;23.296;2022-12-19T10:04:10;41.90;;;21.83;;
15476;SDS011;7840;42.702;23.296;2022-12-19T10:06:42;37.20;;;22.10;;
15476;SDS011;7840;42.702;23.296;2022-12-19T10:09:11;31.80;;;21.73;;
15476;SDS011;7840;42.702;23.296;2022-12-19T10:11:50;29.37;;;19.30;;
15476;SDS011;7840;42.702;23.296;2022-12-19T10:14:31;27.53;;;19.13;;
15476;SDS011;7840;42.702;23.296;2022-12-19T10:17:14;23.87;;;16.63;;
15476;SDS011;7840;42.702;23.296;2022-12-19T10:19:58;33.23;;;19.20;;
15476;SDS011;7840;42.702;23.296;2022-12-19T10:22:42;29.60;;;19.67;;
15476;SDS011;7840;42.702;23.296;2022-12-19T10:25:31;31.50;;;21.33;;
15476;SDS011;7840;42.702;23.296;2022-12-19T10:28:14;32.40;;;20.43;;
15476;SDS011;7840;42.702;23.296;2022-12-19T10:33:44;28.33;;;18.03;;
15476;SDS011;7840;42.702;23.296;2022-12-19T10:36:18;26.80;;;18.17;;
15476;SDS011;7840;42.702;23.296;2022-12-19T10:38:49;30.93;;;19.33;;
15476;SDS011;7840;42.702;23.296;2022-12-19T10:41:26;30.00;;;18.33;;
15476;SDS011;7840;42.702;23.296;2022-12-19T10:51:29;31.80;;;18.73;;
15476;SDS011;7840;42.702;23.296;2022-12-19T10:54:36;30.23;;;19.23;;
15476;SDS011;7840;42.702;23.296;2022-12-19T10:57:25;30.57;;;19.20;;
15476;SDS011;7840;42.702;23.296;2022-12-19T11:03:25;27.53;;;18.37;;
15476;SDS011;7840;42.702;23.296;2022-12-19T11:09:24;30.90;;;19.57;;
15476;SDS011;7840;42.702;23.296;2022-12-19T11:12:12;31.30;;;20.60;;
15476;SDS011;7840;42.702;23.296;2022-12-19T11:15:04;30.97;;;20.17;;
15476;SDS011;7840;42.702;23.296;2022-12-19T11:17:48;31.13;;;19.60;;
15476;SDS011;7840;42.702;23.296;2022-12-19T11:23:55;27.27;;;17.30;;
15476;SDS011;7840;42.702;23.296;2022-12-19T11:26:43;23.60;;;17.40;;
15476;SDS011;7840;42.702;23.296;2022-12-19T11:29:27;22.87;;;16.73;;
15476;SDS011;7840;42.702;23.296;2022-12-19T11:32:28;26.67;;;15.87;;
15476;SDS011;7840;42.702;23.296;2022-12-19T11:34:59;23.07;;;16.77;;
15476;SDS011;7840;42.702;23.296;2022-12-19T11:37:32;31.30;;;17.03;;
15476;SDS011;7840;42.702;23.296;2022-12-19T11:40:09;21.80;;;16.07;;
15476;SDS011;7840;42.702;23.296;2022-12-19T11:42:44;19.97;;;14.17;;
15476;SDS011;7840;42.702;23.296;2022-12-19T11:45:19;22.33;;;15.10;;
15476;SDS011;7840;42.702;23.296;2022-12-19T11:48:20;24.03;;;15.67;;
15476;SDS011;7840;42.702;23.296;2022-12-19T11:50:59;26.27;;;14.97;;
15476;SDS011;7840;42.702;23.296;2022-12-19T11:53:43;21.13;;;14.87;;
15476;SDS011;7840;42.702;23.296;2022-12-19T11:56:36;22.40;;;13.13;;
15476;SDS011;7840;42.702;23.296;2022-12-19T11:59:09;23.43;;;13.37;;
15476;SDS011;7840;42.702;23.296;2022-12-19T12:01:51;17.23;;;12.83;;
15476;SDS011;7840;42.702;23.296;2022-12-19T12:04:36;20.50;;;14.03;;
15476;SDS011;7840;42.702;23.296;2022-12-19T12:07:18;19.23;;;13.13;;
15476;SDS011;7840;42.702;23.296;2022-12-19T12:09:48;22.80;;;14.97;;
15476;SDS011;7840;42.702;23.296;2022-12-19T12:12:39;20.83;;;13.03;;
15476;SDS011;7840;42.702;23.296;2022-12-19T12:15:26;20.53;;;13.63;;
15476;SDS011;7840;42.702;23.296;2022-12-19T12:18:12;19.73;;;13.80;;
15476;SDS011;7840;42.702;23.296;2022-12-19T12:20:58;18.40;;;13.47;;
15476;SDS011;7840;42.702;23.296;2022-12-19T12:23:59;21.73;;;14.70;;
15476;SDS011;7840;42.702;23.296;2022-12-19T12:26:51;18.23;;;13.37;;
15476;SDS011;7840;42.702;23.296;2022-12-19T12:29:34;19.03;;;12.40;;
15476;SDS011;7840;42.702;23.296;2022-12-19T12:32:15;15.17;;;10.93;;
15476;SDS011;7840;42.702;23.296;2022-12-19T12:34:53;18.10;;;12.43;;
15476;SDS011;7840;42.702;23.296;2022-12-19T12:37:31;16.57;;;12.13;;
15476;SDS011;7840;42.702;23.296;2022-12-19T12:40:15;19.50;;;11.50;;
15476;SDS011;7840;42.702;23.296;2022-12-19T12:43:32;18.83;;;12.93;;
15476;SDS011;7840;42.702;23.296;2022-12-19T12:46:26;18.83;;;12.70;;
15476;SDS011;7840;42.702;23.296;2022-12-19T12:49:00;18.60;;;13.53;;
15476;SDS011;7840;42.702;23.296;2022-12-19T12:51:44;22.20;;;12.60;;
15476;SDS011;7840;42.702;23.296;2022-12-19T12:54:12;17.37;;;11.93;;
15476;SDS011;7840;42.702;23.296;2022-12-19T12:56:57;16.93;;;11.23;;
15476;SDS011;7840;42.702;23.296;2022-12-19T12:59:25;18.97;;;12.93;;
15476;SDS011;7840;42.702;23.296;2022-12-19T13:01:59;19.47;;;13.63;;
15476;SDS011;7840;42.702;23.296;2022-12-19T13:04:32;17.67;;;13.13;;
15476;SDS011;7840;42.702;23.296;2022-12-19T13:10:14;21.37;;;12.70;;
15476;SDS011;7840;42.702;23.296;2022-12-19T13:12:53;22.73;;;14.00;;
15476;SDS011;7840;42.702;23.296;2022-12-19T13:15:29;17.77;;;13.53;;
15476;SDS011;7840;42.702;23.296;2022-12-19T13:21:05;17.40;;;13.07;;
15476;SDS011;7840;42.702;23.296;2022-12-19T13:23:46;17.23;;;11.53;;
15476;SDS011;7840;42.702;23.296;2022-12-19T13:26:54;18.30;;;12.47;;
15476;SDS011;7840;42.702;23.296;2022-12-19T13:29:32;19.93;;;12.20;;
15476;SDS011;7840;42.702;23.296;2022-12-19T13:34:52;18.70;;;13.00;;
15476;SDS011;7840;42.702;23.296;2022-12-19T13:37:25;15.10;;;11.83;;
15476;SDS011;7840;42.702;23.296;2022-12-19T13:40:05;21.10;;;12.70;;
15476;SDS011;7840;42.702;23.296;2022-12-19T13:42:44;20.53;;;11.87;;
15476;SDS011;7840;42.702;23.296;2022-12-19T13:45:47;16.60;;;11.57;;
15476;SDS011;7840;42.702;23.296;2022-12-19T13:48:26;18.27;;;12.77;;
15476;SDS011;7840;42.702;23.296;2022-12-19T13:50:59;16.97;;;12.23;;
15476;SDS011;7840;42.702;23.296;2022-12-19T13:53:33;20.17;;;11.43;;
15476;SDS011;7840;42.702;23.296;2022-12-19T13:56:03;17.70;;;11.73;;
15476;SDS011;7840;42.702;23.296;2022-12-19T13:58:40;16.77;;;11.73;;
15476;SDS011;7840;42.702;23.296;2022-12-19T14:01:13;23.40;;;13.17;;
15476;SDS011;7840;42.702;23.296;2022-12-19T14:03:49;18.30;;;12.83;;
15476;SDS011;7840;42.702;23.296;2022-12-19T14:06:21;15.87;;;10.73;;
15476;SDS011;7840;42.702;23.296;2022-12-19T14:08:53;18.33;;;11.20;;
15476;SDS011;7840;42.702;23.296;2022-12-19T14:11:25;22.57;;;14.23;;
15476;SDS011;7840;42.702;23.296;2022-12-19T14:13:55;26.97;;;17.00;;
15476;SDS011;7840;42.702;23.296;2022-12-19T14:16:42;22.77;;;16.20;;
15476;SDS011;7840;42.702;23.296;2022-12-19T14:19:16;21.67;;;15.00;;
15476;SDS011;7840;42.702;23.296;2022-12-19T14:21:47;24.63;;;15.57;;
15476;SDS011;7840;42.702;23.296;2022-12-19T14:24:16;21.37;;;14.57;;
15476;SDS011;7840;42.702;23.296;2022-12-19T14:26:49;17.97;;;12.90;;
15476;SDS011;7840;42.702;23.296;2022-12-19T14:29:27;22.80;;;13.70;;
15476;SDS011;7840;42.702;23.296;2022-12-19T14:31:58;21.17;;;13.97;;
15476;SDS011;7840;42.702;23.296;2022-12-19T14:34:27;20.23;;;13.20;;
15476;SDS011;7840;42.702;23.296;2022-12-19T14:36:59;21.50;;;12.67;;
15476;SDS011;7840;42.702;23.296;2022-12-19T14:39:27;22.17;;;14.57;;
15476;SDS011;7840;42.702;23.296;2022-12-19T14:42:00;22.07;;;14.40;;
15476;SDS011;7840;42.702;23.296;2022-12-19T14:44:48;25.57;;;15.17;;
15476;SDS011;7840;42.702;23.296;2022-12-19T14:47:20;21.07;;;14.80;;
15476;SDS011;7840;42.702;23.296;2022-12-19T14:49:50;23.00;;;12.57;;
15476;SDS011;7840;42.702;23.296;2022-12-19T14:52:38;17.90;;;13.00;;
15476;SDS011;7840;42.702;23.296;2022-12-19T14:55:27;20.33;;;12.37;;
15476;SDS011;7840;42.702;23.296;2022-12-19T14:58:05;23.23;;;15.00;;
15476;SDS011;7840;42.702;23.296;2022-12-19T15:00:41;21.07;;;14.10;;
15476;SDS011;7840;42.702;23.296;2022-12-19T15:03:25;16.40;;;12.63;;
15476;SDS011;7840;42.702;23.296;2022-12-19T15:06:01;22.13;;;13.83;;
15476;SDS011;7840;42.702;23.296;2022-12-19T15:08:33;22.00;;;14.10;;
15476;SDS011;7840;42.702;23.296;2022-12-19T15:11:02;16.20;;;11.53;;
15476;SDS011;7840;42.702;23.296;2022-12-19T15:13:52;21.00;;;12.07;;
15476;SDS011;7840;42.702;23.296;2022-12-19T15:16:25;18.53;;;11.40;;
15476;SDS011;7840;42.702;23.296;2022-12-19T15:19:11;13.83;;;10.13;;
15476;SDS011;7840;42.702;23.296;2022-12-19T15:21:39;21.97;;;10.97;;
15476;SDS011;7840;42.702;23.296;2022-12-19T15:24:08;18.17;;;11.30;;
15476;SDS011;7840;42.702;23.296;2022-12-19T15:26:45;16.47;;;12.13;;
15476;SDS011;7840;42.702;23.296;2022-12-19T15:29:15;24.73;;;15.33;;
15476;SDS011;7840;42.702;23.296;2022-12-19T15:31:43;24.23;;;16.60;;
15476;SDS011;7840;42.702;23.296;2022-12-19T15:34:19;21.23;;;14.27;;
15476;SDS011;7840;42.702;23.296;2022-12-19T15:36:48;23.90;;;15.80;;
15476;SDS011;7840;42.702;23.296;2022-12-19T15:39:18;27.60;;;15.90;;
15476;SDS011;7840;42.702;23.296;2022-12-19T15:41:47;28.10;;;16.93;;
15476;SDS011;7840;42.702;23.296;2022-12-19T15:44:19;22.47;;;15.73;;
15476;SDS011;7840;42.702;23.296;2022-12-19T15:46:51;26.50;;;16.57;;
15476;SDS011;7840;42.702;23.296;2022-12-19T15:49:20;25.23;;;17.40;;
15476;SDS011;7840;42.702;23.296;2022-12-19T15:51:51;24.80;;;16.90;;
15476;SDS011;7840;42.702;23.296;2022-12-19T15:57:17;27.33;;;17.60;;
15476;SDS011;7840;42.702;23.296;2022-12-19T16:00:03;26.33;;;16.97;;
15476;SDS011;7840;42.702;23.296;2022-12-19T16:02:54;29.67;;;18.70;;
15476;SDS011;7840;42.702;23.296;2022-12-19T16:05:37;27.43;;;18.40;;
15476;SDS011;7840;42.702;23.296;2022-12-19T16:08:09;29.40;;;19.20;;
15476;SDS011;7840;42.702;23.296;2022-12-19T16:10:53;29.07;;;18.63;;
15476;SDS011;7840;42.702;23.296;2022-12-19T16:13:23;34.73;;;19.83;;
15476;SDS011;7840;42.702;23.296;2022-12-19T16:19:02;25.97;;;17.50;;
15476;SDS011;7840;42.702;23.296;2022-12-19T16:25:26;25.17;;;18.13;;
15476;SDS011;7840;42.702;23.296;2022-12-19T16:31:34;30.77;;;18.90;;
15476;SDS011;7840;42.702;23.296;2022-12-19T16:34:01;30.10;;;18.23;;
15476;SDS011;7840;42.702;23.296;2022-12-19T16:36:37;28.07;;;17.83;;
15476;SDS011;7840;42.702;23.296;2022-12-19T16:39:05;28.47;;;18.63;;
15476;SDS011;7840;42.702;23.296;2022-12-19T16:41:32;26.93;;;18.33;;
15476;SDS011;7840;42.702;23.296;2022-12-19T16:44:00;29.30;;;17.93;;
15476;SDS011;7840;42.702;23.296;2022-12-19T16:46:29;24.07;;;16.70;;
15476;SDS011;7840;42.702;23.296;2022-12-19T16:48:58;21.47;;;13.83;;
15476;SDS011;7840;42.702;23.296;2022-12-19T16:51:26;24.47;;;17.30;;